sensor_id;sensor_type;location;lat;lon;timestamp;pressure;altitude;pressure_sealevel;temperature;humidity
7990;BME280;4040;42.848;23.034;2023-02-19T00:01:18;95248.09;;;3.75;100.00
7990;BME280;4040;42.848;23.034;2023-02-19T00:07:07;95255.25;;;3.71;100.00
7990;BME280;4040;42.848;23.034;2023-02-19T00:12:57;95244.38;;;3.80;100.00
7990;BME280;4040;42.848;23.034;2023-02-19T00:18:47;95242.19;;;3.82;100.00
7990;BME280;4040;42.848;23.034;2023-02-19T00:24:36;95218.16;;;3.63;100.00
7990;BME280;4040;42.848;23.034;2023-02-19T00:30:25;95215.59;;;3.51;100.00
7990;BME280;4040;42.848;23.034;2023-02-19T00:36:16;95208.66;;;3.46;100.00
7990;BME280;4040;42.848;23.034;2023-02-19T00:42:05;95199.00;;;3.57;100.00
7990;BME280;4040;42.848;23.034;2023-02-19T00:47:54;95211.13;;;3.55;100.00
7990;BME280;4040;42.848;23.034;2023-02-19T00:53:45;95217.28;;;3.59;100.00
7990;BME280;4040;42.848;23.034;2023-02-19T00:59:34;95207.88;;;3.46;100.00
7990;BME280;4040;42.848;23.034;2023-02-19T01:09:06;95216.94;;;3.60;100.00
7990;BME280;4040;42.848;23.034;2023-02-19T01:14:55;95226.78;;;3.75;100.00
7990;BME280;4040;42.848;23.034;2023-02-19T01:20:44;95244.09;;;3.66;100.00
7990;BME280;4040;42.848;23.034;2023-02-19T01:26:35;95248.22;;;3.48;100.00
7990;BME280;4040;42.848;23.034;2023-02-19T01:32:24;95241.72;;;3.30;100.00
7990;BME280;4040;42.848;23.034;2023-02-19T01:38:13;95238.44;;;3.52;100.00
7990;BME280;4040;42.848;23.034;2023-02-19T01:44:05;95233.44;;;3.66;100.00
7990;BME280;4040;42.848;23.034;2023-02-19T01:49:55;95212.56;;;3.52;100.00
7990;BME280;4040;42.848;23.034;2023-02-19T01:55:45;95234.72;;;3.72;100.00
7990;BME280;4040;42.848;23.034;2023-02-19T02:01:38;95229.16;;;3.96;100.00
7990;BME280;4040;42.848;23.034;2023-02-19T02:11:29;95210.22;;;4.20;100.00
7990;BME280;4040;42.848;23.034;2023-02-19T02:17:24;95214.44;;;4.02;100.00
7990;BME280;4040;42.848;23.034;2023-02-19T02:23:18;95213.44;;;4.10;100.00
7990;BME280;4040;42.848;23.034;2023-02-19T02:29:47;95231.81;;;3.96;100.00
7990;BME280;4040;42.848;23.034;2023-02-19T02:35:41;95217.75;;;3.80;100.00
7990;BME280;4040;42.848;23.034;2023-02-19T02:41:32;95230.47;;;3.52;100.00
7990;BME280;4040;42.848;23.034;2023-02-19T02:47:23;95225.66;;;3.42;100.00
7990;BME280;4040;42.848;23.034;2023-02-19T02:53:29;95225.91;;;3.37;100.00
7990;BME280;4040;42.848;23.034;2023-02-19T02:59:38;95231.84;;;2.84;100.00
7990;BME280;4040;42.848;23.034;2023-02-19T03:05:30;95240.00;;;2.48;100.00
7990;BME280;4040;42.848;23.034;2023-02-19T03:11:39;95241.78;;;2.17;100.00
7990;BME280;4040;42.848;23.034;2023-02-19T03:17:49;95249.78;;;2.05;100.00
7990;BME280;4040;42.848;23.034;2023-02-19T03:23:58;95252.59;;;1.96;100.00
7990;BME280;4040;42.848;23.034;2023-02-19T03:30:10;95259.34;;;1.94;100.00
7990;BME280;4040;42.848;23.034;2023-02-19T03:36:03;95258.50;;;2.17;100.00
7990;BME280;4040;42.848;23.034;2023-02-19T03:42:00;95275.44;;;2.52;100.00
7990;BME280;4040;42.848;23.034;2023-02-19T03:48:05;95268.88;;;2.61;100.00
7990;BME280;4040;42.848;23.034;2023-02-19T03:54:04;95275.91;;;2.42;100.00
7990;BME280;4040;42.848;23.034;2023-02-19T04:00:04;95283.53;;;2.16;100.00
7990;BME280;4040;42.848;23.034;2023-02-19T04:06:00;95237.81;;;1.71;100.00
7990;BME280;4040;42.848;23.034;2023-02-19T04:11:51;95287.03;;;1.81;100.00
7990;BME280;4040;42.848;23.034;2023-02-19T04:17:45;95253.75;;;1.59;100.00
7990;BME280;4040;42.848;23.034;2023-02-19T04:23:39;95284.25;;;1.89;100.00
7990;BME280;4040;42.848;23.034;2023-02-19T04:29:30;95279.38;;;1.91;100.00
7990;BME280;4040;42.848;23.034;2023-02-19T04:35:20;95290.88;;;1.95;100.00
7990;BME280;4040;42.848;23.034;2023-02-19T04:41:09;95290.56;;;2.24;100.00
7990;BME280;4040;42.848;23.034;2023-02-19T04:46:58;95296.88;;;2.32;100.00
7990;BME280;4040;42.848;23.034;2023-02-19T04:52:49;95292.06;;;2.49;100.00
7990;BME280;4040;42.848;23.034;2023-02-19T04:58:39;95263.53;;;2.34;100.00
7990;BME280;4040;42.848;23.034;2023-02-19T05:04:28;95296.50;;;2.72;100.00
7990;BME280;4040;42.848;23.034;2023-02-19T05:14:41;95300.84;;;2.65;100.00
7990;BME280;4040;42.848;23.034;2023-02-19T05:20:30;95292.44;;;2.63;100.00
7990;BME280;4040;42.848;23.034;2023-02-19T05:26:20;95295.72;;;2.72;100.00
7990;BME280;4040;42.848;23.034;2023-02-19T05:32:11;95290.38;;;2.99;100.00
7990;BME280;4040;42.848;23.034;2023-02-19T05:37:59;95300.13;;;3.54;100.00
7990;BME280;4040;42.848;23.034;2023-02-19T05:43:49;95306.69;;;3.75;100.00
7990;BME280;4040;42.848;23.034;2023-02-19T05:49:39;95308.50;;;4.21;100.00
7990;BME280;4040;42.848;23.034;2023-02-19T05:55:29;95293.16;;;4.90;100.00
7990;BME280;4040;42.848;23.034;2023-02-19T06:01:20;95311.97;;;5.61;100.00
7990;BME280;4040;42.848;23.034;2023-02-19T06:07:10;95329.97;;;5.87;100.00
7990;BME280;4040;42.848;23.034;2023-02-19T06:17:21;95332.25;;;5.43;100.00
7990;BME280;4040;42.848;23.034;2023-02-19T06:23:12;95344.47;;;5.44;100.00
7990;BME280;4040;42.848;23.034;2023-02-19T06:29:00;95349.06;;;5.66;100.00
7990;BME280;4040;42.848;23.034;2023-02-19T06:34:49;95344.50;;;6.41;100.00
7990;BME280;4040;42.848;23.034;2023-02-19T06:40:40;95354.34;;;6.89;100.00
7990;BME280;4040;42.848;23.034;2023-02-19T06:46:29;95352.19;;;7.02;100.00
7990;BME280;4040;42.848;23.034;2023-02-19T06:52:18;95344.69;;;7.50;100.00
7990;BME280;4040;42.848;23.034;2023-02-19T06:58:08;95350.72;;;8.24;100.00
7990;BME280;4040;42.848;23.034;2023-02-19T07:03:57;95340.84;;;9.17;100.00
7990;BME280;4040;42.848;23.034;2023-02-19T07:09:46;95326.41;;;10.26;84.58
7990;BME280;4040;42.848;23.034;2023-02-19T07:19:58;95344.94;;;12.94;64.69
7990;BME280;4040;42.848;23.034;2023-02-19T07:25:48;95341.94;;;13.52;58.88
7990;BME280;4040;42.848;23.034;2023-02-19T07:31:36;95336.72;;;15.06;53.69
7990;BME280;4040;42.848;23.034;2023-02-19T07:37:27;95331.91;;;14.94;52.87
7990;BME280;4040;42.848;23.034;2023-02-19T07:43:16;95334.56;;;16.58;48.61
7990;BME280;4040;42.848;23.034;2023-02-19T07:49:05;95326.09;;;17.13;46.04
7990;BME280;4040;42.848;23.034;2023-02-19T07:54:56;95332.25;;;19.60;41.49
7990;BME280;4040;42.848;23.034;2023-02-19T08:00:44;95328.69;;;20.33;38.28
7990;BME280;4040;42.848;23.034;2023-02-19T08:06:33;95318.22;;;21.15;38.79
7990;BME280;4040;42.848;23.034;2023-02-19T08:12:24;95315.09;;;23.67;34.09
7990;BME280;4040;42.848;23.034;2023-02-19T08:22:53;95314.03;;;20.75;37.51
7990;BME280;4040;42.848;23.034;2023-02-19T08:28:43;95308.28;;;22.78;35.08
7990;BME280;4040;42.848;23.034;2023-02-19T08:34:32;95301.88;;;26.87;29.50
7990;BME280;4040;42.848;23.034;2023-02-19T08:40:22;95287.91;;;24.67;31.14
7990;BME280;4040;42.848;23.034;2023-02-19T08:46:13;95294.28;;;23.38;32.55
7990;BME280;4040;42.848;23.034;2023-02-19T08:52:02;95279.31;;;24.11;31.25
7990;BME280;4040;42.848;23.034;2023-02-19T08:57:51;95265.97;;;24.24;31.33
7990;BME280;4040;42.848;23.034;2023-02-19T09:03:42;95266.97;;;24.06;31.80
7990;BME280;4040;42.848;23.034;2023-02-19T09:09:31;95257.53;;;25.93;29.33
7990;BME280;4040;42.848;23.034;2023-02-19T09:15:20;95260.00;;;25.91;29.60
7990;BME280;4040;42.848;23.034;2023-02-19T09:25:33;95249.69;;;25.15;30.45
7990;BME280;4040;42.848;23.034;2023-02-19T09:31:21;95240.63;;;27.05;28.08
7990;BME280;4040;42.848;23.034;2023-02-19T09:37:10;95242.63;;;26.16;28.94
7990;BME280;4040;42.848;23.034;2023-02-19T09:43:01;95237.69;;;23.89;32.17
7990;BME280;4040;42.848;23.034;2023-02-19T09:48:57;95224.44;;;24.76;31.92
7990;BME280;4040;42.848;23.034;2023-02-19T09:54:49;95226.22;;;23.47;32.99
7990;BME280;4040;42.848;23.034;2023-02-19T10:00:47;95202.47;;;25.53;29.81
7990;BME280;4040;42.848;23.034;2023-02-19T10:06:36;95195.03;;;26.32;28.67
7990;BME280;4040;42.848;23.034;2023-02-19T10:12:29;95180.94;;;25.57;29.00
7990;BME280;4040;42.848;23.034;2023-02-19T10:18:22;95167.84;;;25.83;29.46
7990;BME280;4040;42.848;23.034;2023-02-19T10:28:33;95156.78;;;29.32;25.35
7990;BME280;4040;42.848;23.034;2023-02-19T10:34:24;95132.53;;;28.35;26.22
7990;BME280;4040;42.848;23.034;2023-02-19T10:40:18;95128.59;;;27.48;26.90
7990;BME280;4040;42.848;23.034;2023-02-19T10:46:15;95115.59;;;30.30;24.54
7990;BME280;4040;42.848;23.034;2023-02-19T10:52:12;95085.31;;;27.78;26.75
7990;BME280;4040;42.848;23.034;2023-02-19T10:58:21;95094.72;;;28.43;26.00
7990;BME280;4040;42.848;23.034;2023-02-19T11:04:16;95061.63;;;27.72;25.38
7990;BME280;4040;42.848;23.034;2023-02-19T11:10:21;95076.13;;;28.84;24.96
7990;BME280;4040;42.848;23.034;2023-02-19T11:16:11;95062.13;;;30.61;23.34
7990;BME280;4040;42.848;23.034;2023-02-19T11:22:00;95038.47;;;29.88;23.96
7990;BME280;4040;42.848;23.034;2023-02-19T11:27:57;95038.31;;;30.65;22.59
7990;BME280;4040;42.848;23.034;2023-02-19T11:33:53;95012.66;;;33.17;20.75
7990;BME280;4040;42.848;23.034;2023-02-19T11:39:44;95019.25;;;31.25;22.09
7990;BME280;4040;42.848;23.034;2023-02-19T11:45:43;95007.63;;;28.33;24.55
7990;BME280;4040;42.848;23.034;2023-02-19T11:51:40;94998.25;;;29.17;24.13
7990;BME280;4040;42.848;23.034;2023-02-19T11:57:40;94986.84;;;30.22;23.73
7990;BME280;4040;42.848;23.034;2023-02-19T12:03:52;94976.75;;;30.93;21.83
7990;BME280;4040;42.848;23.034;2023-02-19T12:09:50;94966.28;;;29.64;23.26
7990;BME280;4040;42.848;23.034;2023-02-19T12:15:55;94949.22;;;28.66;23.74
7990;BME280;4040;42.848;23.034;2023-02-19T12:22:03;94947.00;;;25.61;27.05
7990;BME280;4040;42.848;23.034;2023-02-19T12:28:12;94941.44;;;22.57;31.49
7990;BME280;4040;42.848;23.034;2023-02-19T12:34:32;94922.34;;;20.14;34.90
7990;BME280;4040;42.848;23.034;2023-02-19T12:40:33;94920.22;;;18.61;38.13
7990;BME280;4040;42.848;23.034;2023-02-19T12:46:30;94896.84;;;19.09;37.50
7990;BME280;4040;42.848;23.034;2023-02-19T12:52:22;94881.34;;;18.97;38.41
7990;BME280;4040;42.848;23.034;2023-02-19T12:58:27;94878.34;;;18.95;38.71
7990;BME280;4040;42.848;23.034;2023-02-19T13:04:23;94861.72;;;18.62;38.72
7990;BME280;4040;42.848;23.034;2023-02-19T13:10:21;94850.72;;;18.84;38.26
7990;BME280;4040;42.848;23.034;2023-02-19T13:16:16;94826.78;;;18.97;38.19
7990;BME280;4040;42.848;23.034;2023-02-19T13:22:15;94821.31;;;18.88;38.46
7990;BME280;4040;42.848;23.034;2023-02-19T13:28:39;94804.94;;;18.97;37.79
7990;BME280;4040;42.848;23.034;2023-02-19T13:34:42;94811.16;;;19.33;36.62
7990;BME280;4040;42.848;23.034;2023-02-19T13:40:37;94791.00;;;19.31;37.61
7990;BME280;4040;42.848;23.034;2023-02-19T13:46:37;94797.81;;;18.90;38.71
7990;BME280;4040;42.848;23.034;2023-02-19T13:52:39;94787.94;;;19.11;37.77
7990;BME280;4040;42.848;23.034;2023-02-19T13:58:58;94778.84;;;19.23;37.34
7990;BME280;4040;42.848;23.034;2023-02-19T14:05:02;94776.44;;;19.07;38.10
7990;BME280;4040;42.848;23.034;2023-02-19T14:10:54;94762.59;;;18.65;38.56
7990;BME280;4040;42.848;23.034;2023-02-19T14:16:55;94749.00;;;17.99;39.44
7990;BME280;4040;42.848;23.034;2023-02-19T14:23:13;94764.44;;;18.02;39.93
7990;BME280;4040;42.848;23.034;2023-02-19T14:29:05;94701.88;;;17.50;39.77
7990;BME280;4040;42.848;23.034;2023-02-19T14:34:55;94755.66;;;17.68;40.61
7990;BME280;4040;42.848;23.034;2023-02-19T14:40:45;94755.78;;;17.64;40.30
7990;BME280;4040;42.848;23.034;2023-02-19T14:46:42;94754.94;;;17.76;40.01
7990;BME280;4040;42.848;23.034;2023-02-19T14:52:35;94746.19;;;17.81;39.99
7990;BME280;4040;42.848;23.034;2023-02-19T14:58:29;94745.72;;;17.74;40.23
7990;BME280;4040;42.848;23.034;2023-02-19T15:04:24;94753.56;;;17.41;40.91
7990;BME280;4040;42.848;23.034;2023-02-19T15:10:13;94750.25;;;17.03;41.39
7990;BME280;4040;42.848;23.034;2023-02-19T15:16:03;94744.97;;;16.78;41.71
7990;BME280;4040;42.848;23.034;2023-02-19T15:21:54;94760.38;;;16.81;41.79
7990;BME280;4040;42.848;23.034;2023-02-19T15:27:43;94771.38;;;16.56;42.42
7990;BME280;4040;42.848;23.034;2023-02-19T15:33:32;94774.44;;;16.33;41.94
7990;BME280;4040;42.848;23.034;2023-02-19T15:39:24;94781.09;;;16.20;43.10
7990;BME280;4040;42.848;23.034;2023-02-19T15:45:18;94790.69;;;15.87;43.91
7990;BME280;4040;42.848;23.034;2023-02-19T15:51:13;94793.41;;;15.74;44.82
7990;BME280;4040;42.848;23.034;2023-02-19T15:57:08;94801.59;;;15.33;44.18
7990;BME280;4040;42.848;23.034;2023-02-19T16:03:02;94789.13;;;15.08;45.20
7990;BME280;4040;42.848;23.034;2023-02-19T16:08:59;94810.66;;;14.70;46.50
7990;BME280;4040;42.848;23.034;2023-02-19T16:14:50;94809.28;;;14.50;46.56
7990;BME280;4040;42.848;23.034;2023-02-19T16:20:45;94802.41;;;14.45;46.65
7990;BME280;4040;42.848;23.034;2023-02-19T16:31:00;94832.75;;;14.24;46.97
7990;BME280;4040;42.848;23.034;2023-02-19T16:36:50;94837.88;;;14.03;48.72
7990;BME280;4040;42.848;23.034;2023-02-19T16:49:09;94848.38;;;12.87;53.92
7990;BME280;4040;42.848;23.034;2023-02-19T16:54:58;94849.69;;;12.57;55.74
7990;BME280;4040;42.848;23.034;2023-02-19T17:00:48;94867.03;;;12.59;56.50
7990;BME280;4040;42.848;23.034;2023-02-19T17:06:38;94875.22;;;12.06;59.43
7990;BME280;4040;42.848;23.034;2023-02-19T17:12:27;94892.22;;;12.03;59.64
7990;BME280;4040;42.848;23.034;2023-02-19T17:18:16;94892.94;;;12.07;58.70
7990;BME280;4040;42.848;23.034;2023-02-19T17:24:07;94901.84;;;12.04;60.86
7990;BME280;4040;42.848;23.034;2023-02-19T17:29:56;94909.94;;;11.44;65.34
7990;BME280;4040;42.848;23.034;2023-02-19T17:35:45;94913.19;;;11.32;68.02
7990;BME280;4040;42.848;23.034;2023-02-19T17:41:36;94918.66;;;11.25;68.43
7990;BME280;4040;42.848;23.034;2023-02-19T17:47:24;94923.16;;;11.35;66.90
7990;BME280;4040;42.848;23.034;2023-02-19T17:53:14;94926.53;;;11.76;63.24
7990;BME280;4040;42.848;23.034;2023-02-19T17:59:04;94935.50;;;11.96;61.21
7990;BME280;4040;42.848;23.034;2023-02-19T18:04:53;94935.56;;;12.46;58.87
7990;BME280;4040;42.848;23.034;2023-02-19T18:10:42;94947.00;;;12.53;58.42
7990;BME280;4040;42.848;23.034;2023-02-19T18:16:33;94945.25;;;12.66;57.99
7990;BME280;4040;42.848;23.034;2023-02-19T18:22:22;94962.13;;;12.73;58.35
7990;BME280;4040;42.848;23.034;2023-02-19T18:31:54;94973.13;;;11.80;62.85
7990;BME280;4040;42.848;23.034;2023-02-19T18:37:44;94973.47;;;10.71;70.75
7990;BME280;4040;42.848;23.034;2023-02-19T18:43:33;94975.66;;;10.32;78.78
7990;BME280;4040;42.848;23.034;2023-02-19T18:49:23;94988.84;;;10.16;84.67
7990;BME280;4040;42.848;23.034;2023-02-19T18:55:12;94998.94;;;9.92;94.53
7990;BME280;4040;42.848;23.034;2023-02-19T19:01:01;95002.16;;;9.52;99.79
7990;BME280;4040;42.848;23.034;2023-02-19T19:06:51;95004.41;;;9.71;100.00
7990;BME280;4040;42.848;23.034;2023-02-19T19:12:40;95002.94;;;9.52;100.00
7990;BME280;4040;42.848;23.034;2023-02-19T19:18:29;95012.91;;;9.59;100.00
7990;BME280;4040;42.848;23.034;2023-02-19T19:24:20;95028.19;;;9.83;97.31
7990;BME280;4040;42.848;23.034;2023-02-19T19:34:12;95043.09;;;10.01;92.41
7990;BME280;4040;42.848;23.034;2023-02-19T19:40:02;95051.19;;;9.98;94.11
7990;BME280;4040;42.848;23.034;2023-02-19T19:45:51;95054.31;;;9.86;94.80
7990;BME280;4040;42.848;23.034;2023-02-19T19:51:40;95057.47;;;9.60;98.40
7990;BME280;4040;42.848;23.034;2023-02-19T19:57:31;95061.72;;;9.33;100.00
7990;BME280;4040;42.848;23.034;2023-02-19T20:03:20;95081.34;;;9.37;100.00
7990;BME280;4040;42.848;23.034;2023-02-19T20:09:09;95074.41;;;9.36;100.00
7990;BME280;4040;42.848;23.034;2023-02-19T20:14:59;95070.53;;;9.51;100.00
7990;BME280;4040;42.848;23.034;2023-02-19T20:20:48;95078.28;;;9.28;100.00
7990;BME280;4040;42.848;23.034;2023-02-19T20:26:37;95094.41;;;9.14;100.00
7990;BME280;4040;42.848;23.034;2023-02-19T20:36:42;95100.28;;;10.29;100.00
7990;BME280;4040;42.848;23.034;2023-02-19T20:42:31;95090.78;;;10.79;89.99
7990;BME280;4040;42.848;23.034;2023-02-19T20:48:20;95101.09;;;10.88;87.91
7990;BME280;4040;42.848;23.034;2023-02-19T20:54:11;95108.38;;;10.91;86.53
7990;BME280;4040;42.848;23.034;2023-02-19T21:00:00;95117.72;;;10.79;86.81
7990;BME280;4040;42.848;23.034;2023-02-19T21:05:50;95115.47;;;10.67;87.92
7990;BME280;4040;42.848;23.034;2023-02-19T21:11:41;95111.66;;;10.65;88.47
7990;BME280;4040;42.848;23.034;2023-02-19T21:17:30;95113.94;;;10.66;87.97
7990;BME280;4040;42.848;23.034;2023-02-19T21:23:20;95120.84;;;10.67;87.62
7990;BME280;4040;42.848;23.034;2023-02-19T21:29:14;95132.41;;;10.64;87.65
7990;BME280;4040;42.848;23.034;2023-02-19T21:39:25;95143.97;;;10.65;85.13
7990;BME280;4040;42.848;23.034;2023-02-19T21:45:16;95143.63;;;10.59;85.70
7990;BME280;4040;42.848;23.034;2023-02-19T21:51:06;95153.25;;;10.57;85.81
7990;BME280;4040;42.848;23.034;2023-02-19T21:56:54;95162.50;;;10.45;87.08
7990;BME280;4040;42.848;23.034;2023-02-19T22:02:45;95171.09;;;10.16;90.93
7990;BME280;4040;42.848;23.034;2023-02-19T22:08:34;95186.13;;;10.07;94.23
7990;BME280;4040;42.848;23.034;2023-02-19T22:14:23;95187.25;;;9.88;97.06
7990;BME280;4040;42.848;23.034;2023-02-19T22:20:14;95197.28;;;9.70;99.55
7990;BME280;4040;42.848;23.034;2023-02-19T22:26:05;95211.50;;;9.74;100.00
7990;BME280;4040;42.848;23.034;2023-02-19T22:31:55;95218.00;;;9.84;99.76
7990;BME280;4040;42.848;23.034;2023-02-19T22:42:07;95222.63;;;10.00;98.14
7990;BME280;4040;42.848;23.034;2023-02-19T22:47:56;95215.31;;;9.91;99.92
7990;BME280;4040;42.848;23.034;2023-02-19T22:53:46;95218.78;;;9.81;100.00
7990;BME280;4040;42.848;23.034;2023-02-19T22:59:37;95218.81;;;9.60;100.00
7990;BME280;4040;42.848;23.034;2023-02-19T23:08:28;95208.75;;;9.04;100.00
7990;BME280;4040;42.848;23.034;2023-02-19T23:14:18;95215.66;;;8.91;100.00
7990;BME280;4040;42.848;23.034;2023-02-19T23:20:08;95217.19;;;8.89;100.00
7990;BME280;4040;42.848;23.034;2023-02-19T23:25:59;95217.13;;;8.75;100.00
7990;BME280;4040;42.848;23.034;2023-02-19T23:31:48;95223.28;;;8.72;100.00
7990;BME280;4040;42.848;23.034;2023-02-19T23:37:37;95224.47;;;8.85;100.00
7990;BME280;4040;42.848;23.034;2023-02-19T23:43:27;95243.28;;;8.99;100.00
7990;BME280;4040;42.848;23.034;2023-02-19T23:49:17;95264.47;;;9.18;100.00
7990;BME280;4040;42.848;23.034;2023-02-19T23:55:06;95252.16;;;9.10;100.00
